Time;durP1;ratioP1;P1;durP2;ratioP2;P2;SDS_P1;SDS_P2;PMS_P1;PMS_P2;Temp;Humidity;BMP_temperature;BMP_pressure;BME280_temperature;BME280_humidity;BME280_pressure;Samples;Min_cycle;Max_cycle;Signal;HPM_P1;HPM_P2
2023/08/24 00:00:19;;;;;;;4.88;4.13;;;28.80;94.30;;;;;;10102463;28;20032;-70
2023/08/24 00:05:09;;;;;;;7.68;4.72;;;28.50;94.40;;;;;;10102242;28;20471;-74
2023/08/24 00:10:00;;;;;;;7.93;4.25;;;28.50;94.60;;;;;;10101820;28;20045;-68
2023/08/24 00:14:50;;;;;;;4.60;3.97;;;28.50;94.70;;;;;;10094794;28;20467;-68
2023/08/24 00:19:41;;;;;;;4.60;4.10;;;28.40;94.60;;;;;;10083220;28;20063;-68
2023/08/24 00:24:32;;;;;;;4.15;3.75;;;28.40;94.80;;;;;;10101857;28;20036;-70
2023/08/24 00:29:22;;;;;;;4.93;3.65;;;28.40;94.90;;;;;;10101311;28;20041;-69
2023/08/24 00:34:13;;;;;;;5.72;4.20;;;28.40;95.10;;;;;;10098512;28;20036;-72
2023/08/24 00:39:04;;;;;;;7.07;4.50;;;28.40;95.10;;;;;;10100911;28;20033;-71
2023/08/24 00:43:55;;;;;;;5.38;3.92;;;28.30;95.10;;;;;;10102639;28;20497;-70
2023/08/24 00:48:46;;;;;;;5.05;4.07;;;28.30;95.30;;;;;;10100521;28;20028;-67
2023/08/24 00:53:37;;;;;;;4.78;3.88;;;28.30;95.30;;;;;;10100041;28;20029;-69
2023/08/24 00:58:28;;;;;;;6.22;4.05;;;28.40;95.30;;;;;;10088892;28;20029;-68
2023/08/24 01:03:21;;;;;;;7.97;4.50;;;28.30;95.50;;;;;;10099346;28;20478;-72
2023/08/24 01:08:13;;;;;;;8.30;4.43;;;28.20;95.50;;;;;;10099935;28;20024;-69
2023/08/24 01:13:08;;;;;;;6.20;3.80;;;28.10;95.50;;;;;;10098835;28;20460;-70
2023/08/24 01:18:04;;;;;;;5.03;4.53;;;28.00;95.50;;;;;;10099475;28;20445;-72
2023/08/24 01:23:36;;;;;;;6.75;4.40;;;28.00;95.60;;;;;;10097114;28;20109;-72
2023/08/24 01:28:27;;;;;;;10.10;6.88;;;28.00;95.60;;;;;;10058289;28;20048;-72
2023/08/24 01:33:18;;;;;;;8.00;6.85;;;27.90;95.60;;;;;;10090241;28;20033;-71
2023/08/24 01:38:12;;;;;;;9.20;5.40;;;27.90;95.60;;;;;;10093589;28;20111;-71
2023/08/24 01:43:06;;;;;;;5.47;4.70;;;27.80;95.90;;;;;;10099982;28;20029;-69
2023/08/24 01:48:02;;;;;;;5.28;4.20;;;27.80;95.50;;;;;;10097419;28;20029;-68
2023/08/24 01:52:52;;;;;;;5.53;3.67;;;27.70;95.60;;;;;;10096144;28;20337;-69
2023/08/24 01:57:43;;;;;;;6.70;4.97;;;27.60;95.70;;;;;;10097698;28;20469;-70
2023/08/24 02:02:35;;;;;;;5.03;3.50;;;27.50;95.60;;;;;;10097283;28;20087;-69
2023/08/24 02:07:25;;;;;;;6.55;4.18;;;27.30;95.80;;;;;;10078482;28;20028;-69
2023/08/24 02:12:16;;;;;;;5.45;4.47;;;27.20;95.80;;;;;;10077956;28;20057;-71
2023/08/24 02:17:07;;;;;;;6.95;4.50;;;27.20;95.80;;;;;;10096757;28;20031;-69
2023/08/24 02:21:57;;;;;;;4.00;3.70;;;27.30;95.80;;;;;;10091204;28;20032;-70
2023/08/24 02:26:48;;;;;;;4.88;3.72;;;27.40;95.70;;;;;;10095434;28;20033;-67
2023/08/24 02:31:40;;;;;;;4.95;4.18;;;27.50;95.70;;;;;;10094213;28;20408;-70
2023/08/24 02:36:32;;;;;;;4.32;3.83;;;27.20;95.80;;;;;;10086978;28;20040;-69
2023/08/24 02:41:23;;;;;;;6.40;3.70;;;27.30;95.90;;;;;;10100720;28;20041;-68
2023/08/24 02:46:14;;;;;;;5.13;4.20;;;27.20;95.90;;;;;;10095271;28;20499;-68
2023/08/24 02:51:05;;;;;;;4.75;4.22;;;27.10;95.90;;;;;;10095691;28;20033;-73
2023/08/24 02:55:56;;;;;;;6.78;4.10;;;26.90;96.20;;;;;;10095099;28;20072;-74
2023/08/24 03:00:47;;;;;;;8.48;4.40;;;26.70;96.30;;;;;;10092715;28;20028;-75
2023/08/24 03:05:38;;;;;;;5.28;4.07;;;26.60;96.40;;;;;;10078341;28;20056;-72
2023/08/24 03:10:28;;;;;;;4.93;4.43;;;26.50;96.60;;;;;;10091262;28;20086;-72
2023/08/24 03:15:19;;;;;;;8.15;4.43;;;26.40;96.80;;;;;;10093023;28;20036;-72
2023/08/24 03:20:10;;;;;;;5.60;4.60;;;26.30;96.90;;;;;;10092227;28;20029;-74
2023/08/24 03:25:01;;;;;;;5.10;4.50;;;26.40;97.00;;;;;;10079123;28;20029;-73
2023/08/24 03:29:53;;;;;;;6.20;5.18;;;26.60;96.90;;;;;;10094319;28;20402;-72
2023/08/24 03:34:44;;;;;;;6.25;4.93;;;26.70;96.90;;;;;;10095467;28;20487;-72
2023/08/24 03:39:37;;;;;;;8.00;4.65;;;26.70;97.00;;;;;;10095590;28;20033;-73
2023/08/24 03:44:28;;;;;;;6.63;4.90;;;26.70;97.10;;;;;;10072770;28;20036;-75
2023/08/24 03:49:18;;;;;;;6.30;4.68;;;26.50;97.40;;;;;;10093491;28;20120;-74
2023/08/24 03:54:09;;;;;;;5.63;4.53;;;26.50;97.40;;;;;;10079794;28;20314;-73
2023/08/24 03:59:00;;;;;;;5.07;4.57;;;26.20;97.60;;;;;;10093527;28;20021;-75
2023/08/24 04:03:51;;;;;;;7.75;4.75;;;26.20;97.70;;;;;;10093058;28;20590;-73
2023/08/24 04:08:41;;;;;;;6.90;4.60;;;26.10;97.80;;;;;;10098273;28;20036;-73
2023/08/24 04:13:32;;;;;;;7.50;5.20;;;26.10;97.90;;;;;;10098980;28;20072;-71
2023/08/24 04:18:23;;;;;;;6.22;5.35;;;26.10;97.90;;;;;;10103493;28;20036;-73
2023/08/24 04:23:14;;;;;;;6.30;5.25;;;26.10;98.00;;;;;;10082014;28;20147;-74
2023/08/24 04:28:05;;;;;;;9.73;5.40;;;26.20;98.00;;;;;;10090845;28;20029;-75
2023/08/24 04:32:55;;;;;;;7.82;5.38;;;26.00;98.10;;;;;;10096878;28;20090;-74
2023/08/24 04:37:46;;;;;;;7.63;4.78;;;26.10;98.00;;;;;;10100717;28;20091;-70
2023/08/24 04:42:37;;;;;;;11.88;5.10;;;26.10;98.00;;;;;;10093557;28;20043;-68
2023/08/24 04:47:27;;;;;;;5.35;4.80;;;26.00;98.00;;;;;;10104656;28;20086;-75
2023/08/24 04:52:18;;;;;;;5.20;4.70;;;25.90;98.10;;;;;;10099630;28;20511;-73
2023/08/24 04:57:08;;;;;;;6.00;4.88;;;25.90;98.10;;;;;;10091152;28;20433;-75
2023/08/24 05:01:59;;;;;;;6.03;5.13;;;25.80;98.10;;;;;;10098751;28;20021;-74
2023/08/24 05:06:50;;;;;;;6.10;4.82;;;25.70;98.10;;;;;;10097886;28;20037;-74
2023/08/24 05:11:40;;;;;;;5.70;4.32;;;25.70;98.10;;;;;;10094729;28;20060;-75
2023/08/24 05:16:31;;;;;;;5.30;4.20;;;25.80;98.00;;;;;;10098643;28;20049;-72
2023/08/24 05:21:22;;;;;;;7.13;4.78;;;25.80;97.90;;;;;;10099154;28;20037;-75
2023/08/24 05:26:12;;;;;;;4.35;3.95;;;25.90;97.80;;;;;;10080514;28;20245;-73
2023/08/24 05:31:03;;;;;;;10.70;3.90;;;25.90;97.90;;;;;;10078389;28;20501;-74
2023/08/24 05:35:53;;;;;;;5.20;3.92;;;26.00;97.70;;;;;;10097862;28;20039;-76
2023/08/24 05:40:47;;;;;;;5.05;4.20;;;25.90;97.70;;;;;;10081278;28;20036;-73
2023/08/24 05:45:43;;;;;;;4.93;3.60;;;25.90;97.60;;;;;;10098150;28;20020;-73
2023/08/24 05:50:34;;;;;;;5.78;3.70;;;25.90;97.50;;;;;;10091427;28;20304;-70
2023/08/24 05:55:24;;;;;;;4.97;3.83;;;25.80;97.40;;;;;;10097740;28;20479;-72
2023/08/24 06:00:16;;;;;;;5.85;3.42;;;25.60;97.50;;;;;;10096439;28;20025;-73
2023/08/24 06:05:07;;;;;;;6.05;4.13;;;25.50;97.60;;;;;;10096200;28;20631;-75
2023/08/24 06:09:58;;;;;;;5.45;3.80;;;25.50;97.50;;;;;;10097014;28;20045;-76
2023/08/24 06:14:48;;;;;;;5.68;3.95;;;25.50;97.40;;;;;;10077831;28;20411;-77
2023/08/24 06:19:39;;;;;;;6.15;3.97;;;25.50;97.40;;;;;;10092049;28;20028;-76
2023/08/24 06:24:30;;;;;;;6.55;3.00;;;25.60;97.20;;;;;;10099327;28;20074;-74
2023/08/24 06:29:20;;;;;;;10.73;3.08;;;25.60;97.20;;;;;;10098775;28;20036;-73
2023/08/24 06:34:11;;;;;;;4.25;3.35;;;25.70;97.00;;;;;;10091299;28;20040;-73
2023/08/24 06:39:04;;;;;;;4.70;3.33;;;25.70;97.00;;;;;;10087366;28;20467;-75
2023/08/24 06:43:55;;;;;;;4.40;3.75;;;25.70;97.00;;;;;;10080336;28;20033;-73
2023/08/24 06:48:46;;;;;;;4.88;3.10;;;25.70;96.90;;;;;;10088601;28;20029;-75
2023/08/24 06:53:36;;;;;;;6.30;3.75;;;25.60;97.00;;;;;;10088506;28;20047;-71
2023/08/24 06:58:27;;;;;;;8.10;4.05;;;25.40;97.00;;;;;;10081594;28;20122;-80
2023/08/24 07:03:18;;;;;;;5.25;3.55;;;25.40;97.00;;;;;;10100617;28;20025;-78
2023/08/24 07:08:09;;;;;;;5.82;3.25;;;25.50;97.00;;;;;;10088990;28;20155;-78
2023/08/24 07:13:00;;;;;;;5.40;3.42;;;25.40;97.00;;;;;;10095180;28;20550;-79
2023/08/24 07:17:50;;;;;;;5.10;3.30;;;25.40;97.00;;;;;;10100600;28;20024;-79
2023/08/24 07:22:41;;;;;;;6.22;3.17;;;25.30;97.20;;;;;;10094652;28;20211;-77
2023/08/24 07:27:33;;;;;;;3.90;3.05;;;25.40;97.20;;;;;;10098241;28;20036;-75
2023/08/24 07:32:24;;;;;;;5.18;3.22;;;25.40;97.20;;;;;;10102716;28;20040;-77
2023/08/24 07:37:14;;;;;;;4.07;3.50;;;25.50;97.20;;;;;;10102291;28;20025;-73
2023/08/24 07:42:05;;;;;;;5.60;3.33;;;25.50;97.30;;;;;;10084793;28;20029;-76
2023/08/24 07:46:56;;;;;;;5.38;3.90;;;25.50;97.30;;;;;;10102217;28;20722;-76
2023/08/24 07:51:47;;;;;;;5.78;3.42;;;25.70;97.30;;;;;;10082556;28;20434;-74
2023/08/24 07:56:38;;;;;;;5.35;3.45;;;25.70;97.40;;;;;;10100964;28;20029;-76
2023/08/24 08:01:28;;;;;;;10.82;3.88;;;25.80;97.30;;;;;;10101796;28;20125;-75
2023/08/24 08:06:21;;;;;;;7.55;4.20;;;25.80;97.30;;;;;;10095744;28;20029;-74
2023/08/24 08:11:12;;;;;;;5.68;3.72;;;26.00;97.20;;;;;;10088605;28;20052;-83
2023/08/24 08:16:04;;;;;;;6.72;3.53;;;25.90;97.30;;;;;;10106124;28;20054;-84
2023/08/24 08:20:55;;;;;;;5.68;3.17;;;25.90;97.40;;;;;;10103441;28;20040;-85
2023/08/24 08:25:46;;;;;;;4.53;3.22;;;26.00;97.40;;;;;;10104771;28;20501;-82
2023/08/24 08:30:36;;;;;;;4.97;4.03;;;25.80;97.70;;;;;;10122046;28;20119;-83
2023/08/24 08:35:27;;;;;;;4.68;3.67;;;25.80;97.70;;;;;;10087756;28;20571;-77
2023/08/24 08:40:18;;;;;;;4.32;3.83;;;25.80;97.60;;;;;;10106821;28;20049;-76
2023/08/24 08:45:10;;;;;;;10.55;5.60;;;26.10;97.60;;;;;;10098126;28;20491;-78
2023/08/24 08:50:05;;;;;;;4.70;3.88;;;26.20;97.50;;;;;;10104588;28;20166;-81
2023/08/24 08:54:56;;;;;;;5.60;4.03;;;26.10;97.60;;;;;;10102410;28;20083;-78
2023/08/24 08:59:49;;;;;;;4.63;3.65;;;26.20;97.70;;;;;;10100705;28;20398;-76
2023/08/24 09:04:42;;;;;;;4.03;3.63;;;26.30;97.60;;;;;;10099986;28;20048;-78
2023/08/24 09:09:33;;;;;;;8.23;4.90;;;26.40;97.50;;;;;;10102350;28;20299;-84
2023/08/24 09:14:24;;;;;;;5.85;3.55;;;26.50;97.50;;;;;;10100877;28;20053;-68
2023/08/24 09:19:14;;;;;;;4.32;3.78;;;26.60;97.40;;;;;;10101776;28;20024;-71
2023/08/24 09:24:06;;;;;;;9.00;4.18;;;26.70;97.40;;;;;;10097865;28;20029;-68
2023/08/24 09:29:01;;;;;;;4.53;4.07;;;26.80;97.30;;;;;;10099079;28;20044;-71
2023/08/24 09:34:00;;;;;;;9.15;3.75;;;26.80;97.40;;;;;;10077187;28;20043;-68
2023/08/24 09:38:51;;;;;;;6.38;3.80;;;26.90;97.30;;;;;;10098109;28;20031;-71
2023/08/24 09:43:42;;;;;;;6.13;3.55;;;27.00;97.30;;;;;;10078896;28;20041;-68
2023/08/24 09:48:33;;;;;;;5.30;3.78;;;27.10;97.30;;;;;;10079318;28;20568;-69
2023/08/24 09:53:24;;;;;;;6.53;5.20;;;27.20;97.20;;;;;;10103800;28;20098;-69
2023/08/24 09:58:15;;;;;;;7.20;4.43;;;27.30;97.10;;;;;;10096239;28;20108;-70
2023/08/24 10:03:08;;;;;;;5.43;3.40;;;27.30;97.00;;;;;;10096600;28;20037;-69
2023/08/24 10:07:58;;;;;;;4.38;3.97;;;27.30;97.00;;;;;;10093926;28;20451;-74
2023/08/24 10:12:52;;;;;;;4.40;4.00;;;27.20;97.00;;;;;;10095859;28;20056;-69
2023/08/24 10:17:44;;;;;;;4.70;3.90;;;27.30;96.90;;;;;;10095966;28;20025;-74
2023/08/24 10:22:36;;;;;;;6.68;4.07;;;27.30;96.90;;;;;;10091660;28;20292;-69
2023/08/24 10:27:30;;;;;;;6.45;3.67;;;27.40;96.80;;;;;;10084605;28;20028;-69
2023/08/24 10:32:23;;;;;;;4.85;3.85;;;27.40;96.70;;;;;;10093088;28;20037;-69
2023/08/24 10:37:14;;;;;;;7.07;4.15;;;27.40;96.80;;;;;;10095287;28;20021;-69
2023/08/24 10:42:11;;;;;;;4.28;3.88;;;27.50;96.70;;;;;;10089577;28;20116;-67
2023/08/24 10:47:17;;;;;;;5.45;4.43;;;27.70;96.70;;;;;;10089334;28;20443;-70
2023/08/24 10:52:22;;;;;;;9.70;4.47;;;27.70;96.60;;;;;;10086872;28;20440;-70
2023/08/24 10:57:38;;;;;;;5.80;4.47;;;27.80;96.60;;;;;;10085678;28;20056;-69
2023/08/24 11:02:32;;;;;;;4.70;4.22;;;27.90;96.60;;;;;;10091694;28;20040;-69
2023/08/24 11:07:23;;;;;;;6.97;4.47;;;27.90;96.50;;;;;;10084000;28;20025;-68
2023/08/24 11:12:13;;;;;;;7.78;4.28;;;28.00;96.50;;;;;;10102708;28;20049;-71
2023/08/24 11:17:22;;;;;;;7.38;4.38;;;28.00;96.50;;;;;;10087666;28;20025;-69
2023/08/24 11:22:13;;;;;;;6.40;4.60;;;28.10;96.40;;;;;;10102577;28;20110;-69
2023/08/24 11:27:04;;;;;;;5.22;4.68;;;28.20;96.50;;;;;;10102192;28;20483;-71
2023/08/24 11:31:57;;;;;;;8.82;4.90;;;28.30;96.40;;;;;;10094971;28;20069;-72
2023/08/24 11:36:48;;;;;;;6.53;4.63;;;28.40;96.40;;;;;;10099312;28;20024;-70
2023/08/24 11:41:39;;;;;;;7.35;4.90;;;28.50;96.40;;;;;;10080083;28;20526;-72
2023/08/24 11:46:30;;;;;;;6.07;4.88;;;28.70;96.40;;;;;;10100833;28;20032;-75
2023/08/24 11:51:21;;;;;;;7.28;5.07;;;28.80;96.40;;;;;;10102206;28;20098;-75
2023/08/24 11:56:13;;;;;;;6.60;4.82;;;28.80;96.40;;;;;;10102044;28;20029;-73
2023/08/24 12:01:04;;;;;;;9.38;4.68;;;28.80;96.40;;;;;;10100964;28;20040;-73
2023/08/24 12:06:01;;;;;;;5.53;4.40;;;28.80;96.40;;;;;;10102161;28;20399;-70
2023/08/24 12:10:52;;;;;;;6.10;4.32;;;28.90;96.50;;;;;;10100438;28;20605;-73
2023/08/24 12:15:43;;;;;;;4.97;4.35;;;28.90;96.50;;;;;;10099999;28;20111;-73
2023/08/24 12:20:34;;;;;;;4.38;3.75;;;29.10;96.50;;;;;;10101306;28;20036;-74
2023/08/24 12:25:25;;;;;;;4.22;3.83;;;29.30;96.40;;;;;;10101603;28;20479;-74
2023/08/24 12:30:16;;;;;;;5.28;3.72;;;29.30;96.20;;;;;;10098430;28;20092;-72
2023/08/24 12:35:08;;;;;;;4.72;4.00;;;29.30;96.10;;;;;;10082544;28;20036;-71
2023/08/24 12:39:59;;;;;;;4.85;4.03;;;29.40;96.10;;;;;;10100675;28;20083;-73
2023/08/24 12:44:50;;;;;;;4.95;3.75;;;29.40;96.00;;;;;;10081874;28;20370;-76
2023/08/24 12:49:40;;;;;;;4.72;3.78;;;29.60;96.00;;;;;;10082645;28;20033;-72
2023/08/24 12:54:31;;;;;;;5.35;3.63;;;29.60;96.00;;;;;;10100296;28;20029;-72
2023/08/24 12:59:22;;;;;;;5.80;4.55;;;29.80;95.80;;;;;;10100391;28;20028;-74
2023/08/24 13:04:13;;;;;;;5.82;4.50;;;30.10;95.80;;;;;;10090260;28;20029;-71
2023/08/24 13:09:05;;;;;;;7.20;4.60;;;30.20;95.70;;;;;;10099180;28;20456;-69
2023/08/24 13:13:55;;;;;;;4.13;3.67;;;30.30;95.80;;;;;;10081243;28;20412;-71
2023/08/24 13:18:46;;;;;;;5.53;4.32;;;30.10;95.80;;;;;;10099412;28;20028;-72
2023/08/24 13:23:36;;;;;;;5.47;4.20;;;30.00;95.90;;;;;;10080387;28;20091;-72
2023/08/24 13:28:29;;;;;;;4.43;3.50;;;29.90;96.00;;;;;;10070242;28;20056;-75
2023/08/24 13:33:19;;;;;;;4.50;3.88;;;29.80;96.00;;;;;;10092234;28;20560;-72
2023/08/24 13:38:10;;;;;;;5.10;4.18;;;29.80;96.00;;;;;;10098794;28;20075;-73
2023/08/24 13:43:01;;;;;;;6.78;3.97;;;29.80;96.00;;;;;;10096649;28;20393;-75
2023/08/24 13:47:51;;;;;;;5.35;4.45;;;29.80;96.10;;;;;;10098531;28;20115;-74
2023/08/24 13:52:42;;;;;;;6.22;4.18;;;29.80;96.10;;;;;;10079429;28;20044;-73
2023/08/24 13:57:32;;;;;;;8.90;4.97;;;29.80;96.00;;;;;;10099272;28;20479;-73
2023/08/24 14:02:23;;;;;;;11.82;4.72;;;29.90;96.00;;;;;;10096216;28;20391;-72
2023/08/24 14:07:14;;;;;;;6.05;4.45;;;30.20;95.90;;;;;;10100508;28;20031;-70
2023/08/24 14:12:05;;;;;;;5.50;4.18;;;30.30;95.80;;;;;;10096735;28;20127;-74
2023/08/24 14:16:57;;;;;;;6.97;4.40;;;30.30;95.80;;;;;;10079075;28;20043;-72
2023/08/24 14:21:47;;;;;;;8.65;4.40;;;30.20;95.90;;;;;;10096684;28;20094;-71
2023/08/24 14:26:39;;;;;;;9.48;3.90;;;30.10;96.10;;;;;;10097114;28;20080;-69
2023/08/24 14:31:30;;;;;;;4.97;3.35;;;29.90;96.20;;;;;;10093555;28;20036;-67
2023/08/24 14:36:21;;;;;;;4.05;3.15;;;29.80;96.30;;;;;;10090659;28;20055;-71
2023/08/24 14:41:13;;;;;;;4.97;3.17;;;29.70;96.30;;;;;;10095664;28;20115;-70
2023/08/24 14:46:04;;;;;;;5.65;3.33;;;29.60;96.40;;;;;;10096495;28;20016;-69
2023/08/24 14:50:56;;;;;;;4.97;3.65;;;29.60;96.50;;;;;;10095334;28;20199;-68
2023/08/24 14:55:47;;;;;;;6.13;3.75;;;29.60;96.60;;;;;;10096574;28;20025;-73
2023/08/24 15:00:37;;;;;;;5.53;3.53;;;29.70;96.60;;;;;;10096685;28;20044;-73
2023/08/24 15:05:28;;;;;;;5.25;3.35;;;29.90;96.50;;;;;;10099557;28;20469;-74
2023/08/24 15:10:19;;;;;;;7.18;3.92;;;30.30;96.30;;;;;;10095989;28;20128;-73
2023/08/24 15:15:09;;;;;;;4.53;2.80;;;30.40;96.20;;;;;;10095264;28;20057;-73
2023/08/24 15:20:00;;;;;;;4.68;2.38;;;30.50;96.10;;;;;;10095794;28;20033;-74
2023/08/24 15:24:51;;;;;;;3.83;2.17;;;30.40;96.00;;;;;;10094867;28;20017;-73
2023/08/24 15:29:41;;;;;;;2.53;2.22;;;30.20;95.90;;;;;;10094814;28;20499;-71
2023/08/24 15:34:32;;;;;;;3.75;2.60;;;30.10;95.90;;;;;;10092286;28;20033;-69
2023/08/24 15:39:23;;;;;;;7.32;3.25;;;30.00;95.80;;;;;;10095244;28;20487;-76
2023/08/24 15:44:15;;;;;;;7.25;4.57;;;29.80;95.90;;;;;;10100533;28;20045;-73
2023/08/24 15:49:06;;;;;;;4.03;2.63;;;29.80;96.00;;;;;;10098636;28;20475;-71
2023/08/24 15:53:56;;;;;;;5.03;3.08;;;29.70;96.10;;;;;;10101654;28;20043;-68
2023/08/24 15:58:47;;;;;;;4.72;3.05;;;29.50;96.20;;;;;;10101655;28;20115;-70
2023/08/24 16:03:37;;;;;;;10.98;5.75;;;29.50;96.40;;;;;;10083746;28;20532;-71
2023/08/24 16:08:28;;;;;;;5.70;3.30;;;29.50;96.50;;;;;;10084037;28;20449;-71
2023/08/24 16:13:19;;;;;;;5.97;3.13;;;29.50;96.50;;;;;;10101672;28;20052;-76
2023/08/24 16:18:09;;;;;;;8.32;3.22;;;29.40;96.50;;;;;;10101000;28;20025;-74
2023/08/24 16:23:00;;;;;;;4.82;2.92;;;29.50;96.50;;;;;;10100892;28;20395;-73
2023/08/24 16:27:51;;;;;;;5.05;2.95;;;29.40;96.50;;;;;;10101917;28;20033;-72
2023/08/24 16:32:41;;;;;;;4.25;2.88;;;29.40;96.40;;;;;;10099028;28;20045;-67
2023/08/24 16:37:32;;;;;;;4.38;2.63;;;29.40;96.30;;;;;;10100402;28;20533;-71
2023/08/24 16:42:23;;;;;;;6.07;2.80;;;29.40;96.20;;;;;;10098084;28;20372;-70
2023/08/24 16:47:14;;;;;;;3.65;3.00;;;29.40;96.20;;;;;;10100303;28;20052;-73
2023/08/24 16:52:05;;;;;;;6.95;3.47;;;29.40;96.20;;;;;;10099138;28;20041;-78
2023/08/24 16:56:55;;;;;;;5.35;3.35;;;29.40;96.20;;;;;;10081923;28;20028;-77
2023/08/24 17:01:46;;;;;;;5.93;2.92;;;29.40;96.20;;;;;;10098603;28;20029;-74
2023/08/24 17:06:37;;;;;;;5.15;3.53;;;29.40;96.30;;;;;;10081762;28;20028;-72
2023/08/24 17:11:28;;;;;;;7.68;3.97;;;29.10;96.80;;;;;;10092262;28;20419;-74
2023/08/24 17:16:20;;;;;;;5.88;3.72;;;28.80;97.70;;;;;;10109557;28;20055;-73
2023/08/24 17:21:10;;;;;;;6.15;3.33;;;28.60;98.30;;;;;;10081164;28;20483;-74
2023/08/24 17:26:01;;;;;;;4.80;3.72;;;28.30;98.80;;;;;;10098891;28;20109;-76
2023/08/24 17:30:52;;;;;;;3.78;3.22;;;28.20;99.30;;;;;;10095648;28;20055;-73
2023/08/24 17:35:42;;;;;;;10.63;4.32;;;28.20;99.60;;;;;;10098981;28;20049;-74
2023/08/24 17:40:33;;;;;;;5.57;3.05;;;28.10;99.60;;;;;;10098340;28;20016;-74
2023/08/24 17:45:24;;;;;;;5.18;3.50;;;28.10;99.90;;;;;;10079914;28;20033;-75
2023/08/24 17:50:14;;;;;;;6.43;3.88;;;28.10;99.90;;;;;;10090345;28;20044;-74
2023/08/24 17:55:05;;;;;;;6.38;3.58;;;28.00;99.90;;;;;;10093977;28;20495;-71
2023/08/24 17:59:56;;;;;;;5.85;3.28;;;27.60;99.90;;;;;;10097647;28;20036;-73
2023/08/24 18:04:47;;;;;;;4.60;3.35;;;27.20;99.90;;;;;;10097424;28;20039;-70
2023/08/24 18:09:37;;;;;;;6.47;4.38;;;27.20;99.90;;;;;;10097666;28;20033;-72
2023/08/24 18:14:28;;;;;;;7.72;4.18;;;27.30;99.90;;;;;;10097405;28;20076;-74
2023/08/24 18:19:19;;;;;;;4.93;3.83;;;27.40;99.90;;;;;;10094364;28;20082;-77
2023/08/24 18:24:10;;;;;;;15.77;4.85;;;27.50;99.90;;;;;;10064074;28;20036;-76
2023/08/24 18:29:01;;;;;;;4.45;3.55;;;27.50;99.90;;;;;;10075244;28;20033;-76
2023/08/24 18:33:52;;;;;;;6.50;3.72;;;27.50;99.90;;;;;;10083415;28;20025;-72
2023/08/24 18:38:45;;;;;;;7.20;4.10;;;27.60;99.90;;;;;;10079512;28;20033;-74
2023/08/24 18:43:36;;;;;;;5.17;4.23;;;27.60;99.90;;;;;;10082107;28;20021;-74
2023/08/24 18:48:27;;;;;;;6.55;4.47;;;27.70;99.90;;;;;;10081167;28;20057;-69
2023/08/24 18:53:17;;;;;;;5.78;4.05;;;27.80;99.90;;;;;;10084757;28;20064;-72
2023/08/24 18:58:09;;;;;;;5.82;4.47;;;27.60;99.90;;;;;;10073998;28;20406;-73
2023/08/24 19:02:59;;;;;;;5.85;4.13;;;27.60;99.90;;;;;;10079153;28;20028;-74
2023/08/24 19:07:50;;;;;;;5.15;3.70;;;27.40;99.90;;;;;;10089842;28;20136;-72
2023/08/24 19:12:48;;;;;;;4.85;3.38;;;27.40;99.90;;;;;;10087744;28;20102;-72
2023/08/24 19:17:38;;;;;;;7.65;3.97;;;27.50;99.90;;;;;;10062227;28;20284;-73
2023/08/24 19:22:29;;;;;;;7.32;3.63;;;27.50;99.90;;;;;;10078043;28;20292;-73
2023/08/24 19:27:20;;;;;;;9.13;4.03;;;27.40;99.90;;;;;;10080191;28;20041;-75
2023/08/24 19:32:11;;;;;;;3.63;3.05;;;27.30;99.90;;;;;;10076276;28;20083;-75
2023/08/24 19:37:02;;;;;;;6.82;4.60;;;27.40;99.90;;;;;;10068634;28;20343;-73
2023/08/24 19:41:53;;;;;;;4.57;3.80;;;27.50;99.90;;;;;;10093208;28;20026;-74
2023/08/24 19:46:44;;;;;;;5.40;4.15;;;27.30;99.90;;;;;;10091319;28;20061;-73
2023/08/24 19:51:35;;;;;;;4.60;3.92;;;27.40;99.90;;;;;;10086097;28;20040;-72
2023/08/24 19:56:26;;;;;;;6.00;3.45;;;27.20;99.90;;;;;;10082130;28;20070;-74
2023/08/24 20:01:17;;;;;;;5.85;4.07;;;27.10;99.90;;;;;;10077232;28;20031;-76
2023/08/24 20:06:22;;;;;;;4.13;3.08;;;27.10;99.90;;;;;;10098778;28;20040;-76
2023/08/24 20:11:13;;;;;;;6.20;3.63;;;27.20;99.90;;;;;;10076333;28;20412;-74
2023/08/24 20:16:06;;;;;;;8.05;4.18;;;27.20;99.90;;;;;;10087148;28;20501;-76
2023/08/24 20:20:57;;;;;;;5.10;3.30;;;27.20;99.90;;;;;;10081161;28;20112;-76
2023/08/24 20:25:47;;;;;;;5.18;3.50;;;27.00;99.90;;;;;;10081917;28;20452;-74
2023/08/24 20:30:38;;;;;;;6.97;4.18;;;27.20;99.90;;;;;;10068938;28;20108;-73
2023/08/24 20:35:29;;;;;;;4.18;3.20;;;27.10;99.90;;;;;;10084476;28;20067;-73
2023/08/24 20:40:19;;;;;;;4.28;3.38;;;27.30;99.90;;;;;;10094839;28;20145;-73
2023/08/24 20:45:11;;;;;;;7.78;4.15;;;27.00;99.90;;;;;;10090050;28;20025;-73
2023/08/24 20:50:02;;;;;;;5.07;3.25;;;27.00;99.90;;;;;;10068053;28;20111;-73
2023/08/24 20:54:52;;;;;;;6.40;3.30;;;27.00;99.90;;;;;;10088338;28;20037;-75
2023/08/24 20:59:43;;;;;;;6.97;3.95;;;27.10;99.90;;;;;;10096509;28;20029;-75
2023/08/24 21:04:34;;;;;;;3.70;3.30;;;27.20;99.90;;;;;;10098023;28;20048;-75
2023/08/24 21:09:25;;;;;;;4.55;3.28;;;27.10;99.90;;;;;;10093760;28;20482;-74
2023/08/24 21:14:15;;;;;;;5.38;3.78;;;27.20;99.90;;;;;;10097517;28;20072;-76
2023/08/24 21:19:09;;;;;;;4.13;3.60;;;27.00;99.90;;;;;;10097080;28;20021;-76
2023/08/24 21:24:00;;;;;;;3.35;2.70;;;27.30;99.90;;;;;;10086302;28;20466;-77
2023/08/24 21:28:51;;;;;;;5.65;3.38;;;27.30;99.90;;;;;;10100428;28;20025;-77
2023/08/24 21:33:42;;;;;;;4.55;2.55;;;27.20;99.90;;;;;;10105812;28;20047;-77
2023/08/24 21:38:32;;;;;;;4.25;3.03;;;27.10;99.90;;;;;;10102980;28;20033;-77
2023/08/24 21:43:23;;;;;;;4.93;3.00;;;27.20;99.90;;;;;;10093047;28;20483;-77
2023/08/24 21:48:13;;;;;;;6.78;3.20;;;27.10;99.90;;;;;;10079951;28;20036;-79
2023/08/24 21:53:05;;;;;;;4.13;2.38;;;27.00;99.90;;;;;;10097389;28;20037;-76
2023/08/24 21:57:56;;;;;;;3.78;2.60;;;26.90;99.90;;;;;;10098451;28;20021;-78
2023/08/24 22:02:47;;;;;;;3.17;2.80;;;27.00;99.90;;;;;;10082606;28;20401;-78
2023/08/24 22:07:38;;;;;;;3.28;2.05;;;27.10;99.90;;;;;;10097360;28;20024;-77
2023/08/24 22:12:29;;;;;;;4.20;2.33;;;27.00;99.90;;;;;;10079053;28;20102;-73
2023/08/24 22:17:20;;;;;;;2.40;2.15;;;26.90;99.90;;;;;;10098273;28;20112;-77
2023/08/24 22:22:11;;;;;;;3.08;2.20;;;26.80;99.90;;;;;;10097258;28;20021;-76
2023/08/24 22:27:05;;;;;;;4.28;1.88;;;26.80;99.90;;;;;;10089261;28;20046;-76
2023/08/24 22:31:56;;;;;;;3.03;1.98;;;26.80;99.90;;;;;;10097118;28;20033;-76
2023/08/24 22:36:47;;;;;;;2.47;1.42;;;26.60;99.90;;;;;;10096290;28;20495;-73
2023/08/24 22:41:38;;;;;;;4.38;1.90;;;26.50;99.90;;;;;;10093013;28;20335;-78
2023/08/24 22:46:29;;;;;;;3.60;1.83;;;26.40;99.90;;;;;;10099502;28;20029;-75
2023/08/24 22:51:20;;;;;;;2.75;2.10;;;26.40;99.90;;;;;;10096089;28;20462;-79
2023/08/24 22:56:13;;;;;;;3.88;1.35;;;26.60;99.90;;;;;;10096086;28;20127;-77
2023/08/24 23:01:14;;;;;;;2.17;1.55;;;26.50;99.90;;;;;;10096051;28;20029;-75
2023/08/24 23:06:04;;;;;;;3.10;1.70;;;26.50;99.90;;;;;;10089655;28;20103;-74
2023/08/24 23:10:55;;;;;;;3.17;1.75;;;26.60;99.90;;;;;;10077346;28;20098;-75
2023/08/24 23:15:46;;;;;;;2.15;1.70;;;26.60;99.90;;;;;;10096027;28;20036;-78
2023/08/24 23:20:36;;;;;;;2.83;2.00;;;26.50;99.90;;;;;;10095882;28;20047;-79
2023/08/24 23:25:27;;;;;;;2.00;1.80;;;26.60;99.90;;;;;;10095360;28;20518;-73
2023/08/24 23:30:18;;;;;;;4.40;1.88;;;26.50;99.90;;;;;;10087133;28;20041;-72
2023/08/24 23:35:11;;;;;;;3.33;1.85;;;26.50;99.90;;;;;;10110108;28;20534;-74
2023/08/24 23:40:03;;;;;;;3.58;2.15;;;26.50;99.90;;;;;;10094842;28;20466;-74
2023/08/24 23:44:54;;;;;;;2.17;1.60;;;26.50;99.90;;;;;;10089951;28;20058;-73
2023/08/24 23:49:47;;;;;;;4.10;2.33;;;26.40;99.90;;;;;;10094833;28;20051;-73
2023/08/24 23:54:38;;;;;;;3.30;1.90;;;26.50;99.90;;;;;;10094847;28;20399;-76
2023/08/24 23:59:29;;;;;;;4.82;2.08;;;26.50;99.90;;;;;;10094604;28;20028;-76
